Huvudsida
METAR-TAF:

METAR-TAF

Flygplatser :

Mo i Rana, Norge

Mo i Rana flygplats. Røssvoll

latitud: 66-22N, longitud: 014-18E, höjd: 7 m

Aktuellt väderrapport

Denna rapport gjordes för 38 minuter sedan, klockan 10:20 UTC
Vind 18 kt från ost i byarna ända upp till 28 kt
Temperatur -3°C
Fuktighet 54%
Tryck 996 hPa
Sikt 10 km eller mer
Spridda moln på en höjd av 4500 ft
Brutna moln på en höjd av 8000 ft

METAR: ENRA 171020Z 10018G28KT 9999 SCT045 BKN080 M03/M11 Q0996

Tid: 11:58 (10:58 UTC)

Väderprognos

Denna rapport gjordes för 2 timmar och 58 minuter sedan, klockan 08:00 UTC
Prognos gäller från 17 kl. 09 UTC till 17 kl. 18 UTC
Vind 20 kt från ost i byarna ända upp till 30 kt
Sikt 10 km eller mer
Spridda moln på en höjd av 4000 ft

TAF: ENRA 170800Z 1709/1718 09020G30KT 9999 SCT040

Aktuella väderrapporter och prognoser från 4000 flygplatser (METAR- och TAF-rapporter).

De tillgängliga stationerna syns som gula och röda prickar på kartan.

För musen över prickarna för att se namnen på stationerna.

Klicka sedan för att få väderrapporter och prognoser.

För att ändra kartan: Klicka på de gröna knapparna med ett svart kors på för att zooma in; den gröna knappen med ett streck på för att zooma ut; eller på de gröna pilarna för angränsande kartor.


METAR-TAF: